Time;durP1;ratioP1;P1;durP2;ratioP2;P2;SDS_P1;SDS_P2;PMS_P1;PMS_P2;Temp;Humidity;BMP_temperature;BMP_pressure;BME280_temperature;BME280_humidity;BME280_pressure;Samples;Min_cycle;Max_cycle;Signal;HPM_P1;HPM_P2
2022/09/27 00:00:15;;;;;;;5.03;3.20;;;;;;;;;;2081553;28;20049;-79
2022/09/27 00:01:34;;;;;;;3.90;2.72;;;;;;;;;;2077849;28;20037;-79
2022/09/27 00:02:52;;;;;;;5.32;3.53;;;;;;;;;;2083347;28;20108;-78
2022/09/27 00:04:11;;;;;;;6.82;2.97;;;;;;;;;;2079979;28;20029;-80
2022/09/27 00:05:30;;;;;;;5.00;3.40;;;;;;;;;;2082724;28;20485;-79
2022/09/27 00:06:49;;;;;;;3.55;3.10;;;;;;;;;;2088591;28;20100;-79
2022/09/27 00:08:08;;;;;;;4.78;3.30;;;;;;;;;;2086995;28;20402;-80
2022/09/27 00:09:27;;;;;;;4.55;3.50;;;;;;;;;;2078459;28;20030;-79
2022/09/27 00:10:46;;;;;;;3.80;3.22;;;;;;;;;;2085065;28;20029;-79
2022/09/27 00:12:05;;;;;;;3.42;3.13;;;;;;;;;;2089060;28;20467;-80
2022/09/27 00:13:24;;;;;;;4.63;3.30;;;;;;;;;;2086160;28;20490;-80
2022/09/27 00:14:43;;;;;;;4.13;3.08;;;;;;;;;;2078902;28;20410;-80
2022/09/27 00:16:05;;;;;;;6.65;2.78;;;;;;;;;;2081702;28;20034;-80
2022/09/27 00:17:25;;;;;;;5.25;2.45;;;;;;;;;;2086701;28;20119;-80
2022/09/27 00:18:44;;;;;;;3.05;2.30;;;;;;;;;;2085518;28;20033;-79
2022/09/27 00:20:05;;;;;;;2.10;1.90;;;;;;;;;;2087385;28;20029;-80
2022/09/27 00:21:24;;;;;;;5.70;2.70;;;;;;;;;;2085787;28;20024;-79
2022/09/27 00:22:43;;;;;;;6.20;2.40;;;;;;;;;;2088922;28;20037;-79
2022/09/27 00:24:02;;;;;;;3.03;1.83;;;;;;;;;;2078755;28;20033;-79
2022/09/27 00:25:21;;;;;;;3.00;1.80;;;;;;;;;;2075060;28;20025;-79
2022/09/27 00:26:40;;;;;;;3.00;2.05;;;;;;;;;;2084902;28;20033;-80
2022/09/27 00:28:00;;;;;;;4.72;1.88;;;;;;;;;;2086004;28;20104;-78
2022/09/27 00:29:19;;;;;;;4.40;2.15;;;;;;;;;;2084269;28;20037;-78
2022/09/27 00:30:40;;;;;;;2.20;1.73;;;;;;;;;;2085738;28;20443;-78
2022/09/27 00:31:59;;;;;;;5.55;1.98;;;;;;;;;;2077968;28;20013;-78
2022/09/27 00:33:18;;;;;;;1.92;1.80;;;;;;;;;;2077601;28;20066;-78
2022/09/27 00:34:37;;;;;;;7.35;2.47;;;;;;;;;;2082179;28;20037;-78
2022/09/27 00:36:02;;;;;;;2.45;1.92;;;;;;;;;;2081968;28;20033;-78
2022/09/27 00:37:21;;;;;;;2.08;1.88;;;;;;;;;;2085030;28;20024;-78
2022/09/27 00:38:40;;;;;;;3.90;1.30;;;;;;;;;;2078200;28;20029;-78
2022/09/27 00:39:59;;;;;;;2.60;1.77;;;;;;;;;;2084129;28;20033;-78
2022/09/27 00:41:19;;;;;;;2.85;1.70;;;;;;;;;;2086408;28;20029;-79
2022/09/27 00:42:38;;;;;;;2.88;1.30;;;;;;;;;;2087022;28;20048;-79
2022/09/27 00:43:59;;;;;;;2.55;1.70;;;;;;;;;;2084902;28;20029;-78
2022/09/27 00:45:18;;;;;;;5.07;1.17;;;;;;;;;;2084161;28;20718;-78
2022/09/27 00:46:43;;;;;;;3.03;1.77;;;;;;;;;;2088501;28;20040;-79
2022/09/27 00:48:03;;;;;;;5.65;1.70;;;;;;;;;;2087608;28;20021;-78
2022/09/27 00:49:28;;;;;;;3.25;1.30;;;;;;;;;;2085239;28;20025;-79
2022/09/27 00:50:49;;;;;;;2.42;1.38;;;;;;;;;;2087761;28;20037;-79
2022/09/27 00:52:10;;;;;;;1.70;1.52;;;;;;;;;;2088175;28;20036;-79
2022/09/27 00:53:29;;;;;;;3.05;1.30;;;;;;;;;;2085583;28;20029;-78
2022/09/27 00:54:51;;;;;;;3.25;1.52;;;;;;;;;;2089209;28;20036;-79
2022/09/27 00:56:11;;;;;;;1.90;1.23;;;;;;;;;;2086257;28;20401;-79
2022/09/27 00:57:30;;;;;;;3.78;1.17;;;;;;;;;;2085718;28;20033;-79
2022/09/27 00:58:53;;;;;;;1.35;1.25;;;;;;;;;;2088150;28;20029;-78
2022/09/27 01:00:14;;;;;;;2.58;1.90;;;;;;;;;;2078528;28;20034;-79
2022/09/27 01:01:33;;;;;;;4.90;1.27;;;;;;;;;;2083459;28;20028;-78
2022/09/27 01:02:53;;;;;;;2.85;1.30;;;;;;;;;;2079524;28;20030;-78
2022/09/27 01:04:13;;;;;;;5.38;1.60;;;;;;;;;;2082964;28;20029;-78
2022/09/27 01:05:32;;;;;;;3.40;1.20;;;;;;;;;;2086763;28;20037;-79
2022/09/27 01:06:51;;;;;;;12.10;1.73;;;;;;;;;;2084941;28;20044;-78
2022/09/27 01:08:10;;;;;;;3.65;1.45;;;;;;;;;;2088082;28;20025;-79
2022/09/27 01:09:29;;;;;;;1.73;1.20;;;;;;;;;;2077744;28;20534;-78
2022/09/27 01:11:04;;;;;;;2.50;1.35;;;;;;;;;;2084703;28;20643;-79
2022/09/27 01:12:30;;;;;;;4.55;1.58;;;;;;;;;;2087906;28;20469;-79
2022/09/27 01:13:49;;;;;;;3.58;1.30;;;;;;;;;;2085264;28;20040;-79
2022/09/27 01:15:22;;;;;;;2.75;0.95;;;;;;;;;;2084117;28;20041;-78
2022/09/27 01:16:51;;;;;;;5.93;1.63;;;;;;;;;;2086564;28;20029;-77
2022/09/27 01:18:36;;;;;;;4.03;1.40;;;;;;;;;;2087628;28;20033;-79
2022/09/27 01:19:58;;;;;;;3.15;1.00;;;;;;;;;;2085797;28;20041;-79
2022/09/27 01:21:34;;;;;;;2.45;1.23;;;;;;;;;;2076501;28;20108;-79
2022/09/27 01:23:08;;;;;;;2.55;1.20;;;;;;;;;;2086376;28;20029;-78
2022/09/27 01:24:46;;;;;;;3.17;1.23;;;;;;;;;;2078528;28;20045;-78
2022/09/27 01:26:08;;;;;;;2.85;1.00;;;;;;;;;;2087095;28;20029;-78
2022/09/27 01:27:36;;;;;;;3.72;1.33;;;;;;;;;;2087117;28;20037;-78
2022/09/27 01:28:58;;;;;;;2.45;1.20;;;;;;;;;;2087229;28;20378;-78
2022/09/27 01:30:19;;;;;;;6.32;1.50;;;;;;;;;;2086489;28;20493;-79
2022/09/27 01:31:41;;;;;;;2.40;1.23;;;;;;;;;;2086535;28;20112;-78
2022/09/27 01:33:14;;;;;;;4.40;1.30;;;;;;;;;;2084849;28;20025;-78
2022/09/27 01:34:39;;;;;;;2.85;1.33;;;;;;;;;;2079550;28;20037;-79
2022/09/27 01:36:05;;;;;;;3.13;1.30;;;;;;;;;;2085141;28;20056;-78
2022/09/27 01:37:33;;;;;;;3.78;1.10;;;;;;;;;;2083409;28;20036;-79
2022/09/27 01:39:11;;;;;;;3.10;1.30;;;;;;;;;;2087836;28;20458;-78
2022/09/27 01:40:40;;;;;;;3.90;1.88;;;;;;;;;;2087751;28;20029;-78
2022/09/27 01:42:16;;;;;;;3.00;1.33;;;;;;;;;;2087867;28;20029;-79
2022/09/27 01:43:39;;;;;;;5.90;1.50;;;;;;;;;;2085803;28;20041;-79
2022/09/27 01:44:58;;;;;;;4.20;1.48;;;;;;;;;;2084018;28;20037;-79
2022/09/27 01:46:22;;;;;;;3.28;1.45;;;;;;;;;;2087257;28;20129;-79
2022/09/27 01:47:43;;;;;;;5.93;1.63;;;;;;;;;;2084071;28;20029;-79
2022/09/27 01:49:05;;;;;;;2.15;1.23;;;;;;;;;;2084821;28;20111;-79
2022/09/27 01:50:39;;;;;;;3.72;1.50;;;;;;;;;;2087938;28;20037;-78
2022/09/27 01:52:00;;;;;;;1.92;1.52;;;;;;;;;;2087228;28;20056;-78
2022/09/27 01:53:24;;;;;;;3.97;1.40;;;;;;;;;;2087047;28;20029;-78
2022/09/27 01:54:47;;;;;;;4.07;1.77;;;;;;;;;;2079854;28;20025;-79
2022/09/27 01:56:08;;;;;;;3.67;1.37;;;;;;;;;;2085566;28;20025;-79
2022/09/27 01:57:33;;;;;;;3.30;1.33;;;;;;;;;;2084259;28;20266;-77
2022/09/27 01:58:58;;;;;;;2.80;1.50;;;;;;;;;;2087612;28;20033;-78
2022/09/27 02:00:17;;;;;;;3.40;1.52;;;;;;;;;;2082871;28;20032;-79
2022/09/27 02:01:38;;;;;;;2.85;1.50;;;;;;;;;;2077740;28;20033;-79
2022/09/27 02:03:17;;;;;;;2.00;1.60;;;;;;;;;;2077636;28;20025;-78
2022/09/27 02:04:37;;;;;;;5.03;1.73;;;;;;;;;;2089809;28;20018;-78
2022/09/27 02:06:00;;;;;;;2.75;1.40;;;;;;;;;;2080546;28;20025;-78
2022/09/27 02:07:22;;;;;;;2.45;1.35;;;;;;;;;;2072426;28;20456;-78
2022/09/27 02:08:44;;;;;;;2.78;1.67;;;;;;;;;;2086234;28;20027;-78
2022/09/27 02:10:11;;;;;;;2.53;1.42;;;;;;;;;;2087820;28;20607;-78
2022/09/27 02:11:30;;;;;;;3.40;1.30;;;;;;;;;;2088277;28;20037;-78
2022/09/27 02:12:56;;;;;;;4.78;1.52;;;;;;;;;;2089022;28;20502;-78
2022/09/27 02:14:18;;;;;;;5.97;1.67;;;;;;;;;;2088902;28;20033;-79
2022/09/27 02:15:46;;;;;;;2.00;1.60;;;;;;;;;;2084219;28;20486;-79
2022/09/27 02:17:14;;;;;;;3.00;1.85;;;;;;;;;;2088424;28;20489;-78
2022/09/27 02:18:40;;;;;;;4.88;1.70;;;;;;;;;;2089283;28;20079;-79
2022/09/27 02:20:10;;;;;;;4.93;1.67;;;;;;;;;;2079894;28;20034;-78
2022/09/27 02:21:44;;;;;;;5.03;1.67;;;;;;;;;;2085856;28;20495;-78
2022/09/27 02:23:13;;;;;;;3.67;1.40;;;;;;;;;;2086965;28;20584;-78
2022/09/27 02:24:53;;;;;;;5.15;1.50;;;;;;;;;;2088484;28;20037;-78
2022/09/27 02:26:18;;;;;;;4.82;1.70;;;;;;;;;;2070192;28;20026;-78
2022/09/27 02:27:44;;;;;;;3.10;1.63;;;;;;;;;;2085149;28;20064;-78
2022/09/27 02:29:10;;;;;;;3.80;1.80;;;;;;;;;;2088511;28;20025;-78
2022/09/27 02:30:29;;;;;;;3.80;2.17;;;;;;;;;;2078084;28;20037;-78
2022/09/27 02:31:48;;;;;;;4.38;1.73;;;;;;;;;;2076197;28;20021;-78
2022/09/27 02:33:07;;;;;;;5.30;1.80;;;;;;;;;;2084281;28;20037;-78
2022/09/27 02:34:28;;;;;;;6.63;1.90;;;;;;;;;;2089135;28;20025;-78
2022/09/27 02:35:47;;;;;;;3.17;1.77;;;;;;;;;;2075713;28;20410;-77
2022/09/27 02:37:06;;;;;;;5.25;2.08;;;;;;;;;;2084445;28;20401;-78
2022/09/27 02:38:25;;;;;;;4.60;2.10;;;;;;;;;;2087361;28;20501;-78
2022/09/27 02:39:44;;;;;;;4.78;1.67;;;;;;;;;;2079351;28;20034;-79
2022/09/27 02:41:10;;;;;;;4.00;1.85;;;;;;;;;;2082399;28;20021;-78
2022/09/27 02:42:30;;;;;;;6.53;2.42;;;;;;;;;;2089490;28;20574;-78
2022/09/27 02:43:51;;;;;;;3.78;1.55;;;;;;;;;;2079226;28;20045;-78
2022/09/27 02:45:11;;;;;;;4.53;2.10;;;;;;;;;;2082692;28;20033;-78
2022/09/27 02:46:55;;;;;;;5.50;2.35;;;;;;;;;;2078017;28;20061;-79
2022/09/27 02:48:21;;;;;;;3.95;1.80;;;;;;;;;;2085838;28;20402;-79
2022/09/27 02:49:43;;;;;;;3.17;1.70;;;;;;;;;;2086532;28;20120;-79
2022/09/27 02:51:14;;;;;;;2.92;1.80;;;;;;;;;;2086426;28;20029;-79
2022/09/27 02:52:41;;;;;;;2.70;1.95;;;;;;;;;;2077589;28;20037;-78
2022/09/27 02:54:00;;;;;;;6.43;2.10;;;;;;;;;;2085854;28;20115;-79
2022/09/27 02:55:22;;;;;;;7.07;1.77;;;;;;;;;;2086652;28;20490;-79
2022/09/27 02:57:00;;;;;;;6.07;2.08;;;;;;;;;;2080833;28;20041;-79
2022/09/27 02:58:24;;;;;;;4.95;2.25;;;;;;;;;;2085508;28;20092;-79
2022/09/27 02:59:52;;;;;;;3.60;1.77;;;;;;;;;;2086345;28;20108;-79
2022/09/27 03:01:13;;;;;;;4.22;1.67;;;;;;;;;;2086894;28;20033;-79
2022/09/27 03:02:37;;;;;;;3.83;2.03;;;;;;;;;;2088448;28;20032;-78
2022/09/27 03:04:22;;;;;;;4.45;1.85;;;;;;;;;;2089540;28;20033;-79
2022/09/27 03:05:48;;;;;;;3.85;1.60;;;;;;;;;;2086491;28;20036;-78
2022/09/27 03:07:07;;;;;;;6.93;1.73;;;;;;;;;;2087772;28;20037;-79
2022/09/27 03:08:26;;;;;;;3.83;1.60;;;;;;;;;;2086393;28;20025;-79
2022/09/27 03:09:46;;;;;;;3.05;2.17;;;;;;;;;;2074695;28;20454;-79
2022/09/27 03:11:05;;;;;;;3.65;2.03;;;;;;;;;;2083767;28;20032;-79
2022/09/27 03:12:27;;;;;;;4.63;1.95;;;;;;;;;;2088204;28;20572;-78
2022/09/27 03:13:46;;;;;;;2.80;1.63;;;;;;;;;;2086862;28;20056;-79
2022/09/27 03:15:05;;;;;;;4.22;2.00;;;;;;;;;;2086181;28;20057;-78
2022/09/27 03:16:24;;;;;;;4.32;1.80;;;;;;;;;;2086928;28;20482;-78
2022/09/27 03:17:43;;;;;;;4.45;1.92;;;;;;;;;;2087371;28;20032;-79
2022/09/27 03:19:02;;;;;;;2.63;2.03;;;;;;;;;;2087609;28;20041;-79
2022/09/27 03:20:21;;;;;;;5.53;1.60;;;;;;;;;;2088018;28;20025;-79
2022/09/27 03:21:40;;;;;;;3.25;2.10;;;;;;;;;;2076343;28;20033;-79
2022/09/27 03:22:59;;;;;;;5.68;2.10;;;;;;;;;;2082261;28;20474;-78
2022/09/27 03:24:18;;;;;;;5.70;1.83;;;;;;;;;;2088151;28;20017;-79
2022/09/27 03:25:37;;;;;;;4.63;1.90;;;;;;;;;;2079890;28;20065;-78
2022/09/27 03:26:56;;;;;;;5.57;2.30;;;;;;;;;;2083673;28;20485;-78
2022/09/27 03:28:15;;;;;;;3.53;2.13;;;;;;;;;;2088667;28;20033;-78
2022/09/27 03:29:34;;;;;;;2.28;1.73;;;;;;;;;;2085135;28;20025;-79
2022/09/27 03:30:53;;;;;;;4.15;1.92;;;;;;;;;;2087017;28;20041;-77
2022/09/27 03:32:12;;;;;;;4.45;1.90;;;;;;;;;;2088088;28;20029;-78
2022/09/27 03:33:32;;;;;;;5.75;2.10;;;;;;;;;;2077203;28;20510;-78
2022/09/27 03:34:53;;;;;;;4.10;1.90;;;;;;;;;;2085922;28;20482;-79
2022/09/27 03:36:12;;;;;;;2.63;1.92;;;;;;;;;;2079354;28;20108;-78
2022/09/27 03:37:32;;;;;;;3.20;1.50;;;;;;;;;;2073877;28;20038;-78
2022/09/27 03:38:50;;;;;;;7.97;2.00;;;;;;;;;;2074423;28;20030;-78
2022/09/27 03:40:09;;;;;;;3.08;1.77;;;;;;;;;;2075762;28;20045;-79
2022/09/27 03:41:28;;;;;;;4.88;1.73;;;;;;;;;;2081885;28;21258;-78
2022/09/27 03:42:49;;;;;;;5.20;1.80;;;;;;;;;;2087064;28;20426;-79
2022/09/27 03:44:08;;;;;;;5.60;1.70;;;;;;;;;;2078301;28;20041;-78
2022/09/27 03:45:27;;;;;;;3.75;1.67;;;;;;;;;;2073936;28;20418;-78
2022/09/27 03:46:46;;;;;;;4.95;1.40;;;;;;;;;;2084082;28;20393;-78
2022/09/27 03:48:04;;;;;;;5.40;2.67;;;;;;;;;;2089053;28;20918;-79
2022/09/27 03:49:23;;;;;;;3.50;1.48;;;;;;;;;;2077800;28;20506;-78
2022/09/27 03:50:43;;;;;;;4.85;1.75;;;;;;;;;;2083855;28;20108;-78
2022/09/27 03:52:02;;;;;;;5.55;1.90;;;;;;;;;;2085410;28;20033;-78
2022/09/27 03:53:21;;;;;;;5.40;1.60;;;;;;;;;;2073647;28;20034;-79
2022/09/27 03:54:41;;;;;;;4.07;1.80;;;;;;;;;;2083837;28;20112;-78
2022/09/27 03:56:00;;;;;;;8.80;1.70;;;;;;;;;;2088800;28;20394;-79
2022/09/27 03:57:19;;;;;;;2.90;1.70;;;;;;;;;;2076885;28;20045;-78
2022/09/27 03:58:38;;;;;;;4.32;1.70;;;;;;;;;;2076077;28;20108;-78
2022/09/27 03:59:58;;;;;;;2.75;1.77;;;;;;;;;;2075697;28;20038;-78
2022/09/27 04:01:17;;;;;;;4.10;1.65;;;;;;;;;;2075663;28;20033;-78
2022/09/27 04:02:36;;;;;;;5.88;2.13;;;;;;;;;;2081635;28;20355;-78
2022/09/27 04:03:55;;;;;;;1.77;1.40;;;;;;;;;;2078748;28;20557;-79
2022/09/27 04:05:14;;;;;;;3.80;1.63;;;;;;;;;;2083099;28;20029;-78
2022/09/27 04:06:33;;;;;;;2.85;1.63;;;;;;;;;;2088661;28;20424;-78
2022/09/27 04:07:53;;;;;;;2.58;1.60;;;;;;;;;;2087570;28;20029;-78
2022/09/27 04:09:12;;;;;;;2.95;1.77;;;;;;;;;;2087824;28;20029;-78
2022/09/27 04:10:30;;;;;;;4.90;1.63;;;;;;;;;;2088326;28;20021;-78
2022/09/27 04:11:49;;;;;;;5.90;1.50;;;;;;;;;;2085582;28;20047;-78
2022/09/27 04:13:08;;;;;;;7.15;1.63;;;;;;;;;;2086821;28;20033;-78
2022/09/27 04:14:27;;;;;;;6.50;1.83;;;;;;;;;;2087053;28;20017;-78
2022/09/27 04:15:46;;;;;;;4.10;1.60;;;;;;;;;;2084910;28;20057;-78
2022/09/27 04:17:05;;;;;;;3.38;1.80;;;;;;;;;;2087092;28;20056;-78
2022/09/27 04:18:24;;;;;;;6.00;1.52;;;;;;;;;;2078191;28;20026;-78
2022/09/27 04:19:43;;;;;;;10.10;2.20;;;;;;;;;;2073355;28;20021;-78
2022/09/27 04:21:02;;;;;;;4.85;1.60;;;;;;;;;;2082526;28;20486;-77
2022/09/27 04:22:22;;;;;;;5.72;1.90;;;;;;;;;;2078503;28;20116;-79
2022/09/27 04:23:41;;;;;;;5.82;1.92;;;;;;;;;;2075009;28;20072;-78
2022/09/27 04:25:00;;;;;;;6.05;1.92;;;;;;;;;;2073439;28;20037;-78
2022/09/27 04:26:19;;;;;;;3.40;1.77;;;;;;;;;;2084768;28;20119;-78
2022/09/27 04:27:42;;;;;;;3.83;1.63;;;;;;;;;;2077780;28;20022;-79
2022/09/27 04:29:02;;;;;;;3.03;2.00;;;;;;;;;;2082569;28;20028;-78
2022/09/27 04:30:21;;;;;;;6.97;2.03;;;;;;;;;;2085990;28;20482;-77
2022/09/27 04:31:40;;;;;;;4.22;1.77;;;;;;;;;;2085895;28;20060;-77
2022/09/27 04:32:59;;;;;;;9.32;2.05;;;;;;;;;;2083221;28;20033;-78
2022/09/27 04:36:25;;;;;;;3.95;2.05;;;;;;;;;;2083699;28;20021;-78
2022/09/27 04:37:52;;;;;;;5.45;1.88;;;;;;;;;;2060106;28;20030;-78
2022/09/27 04:39:11;;;;;;;3.65;1.90;;;;;;;;;;2060133;28;20022;-77
2022/09/27 04:40:33;;;;;;;3.92;1.95;;;;;;;;;;2072647;28;20022;-77
2022/09/27 04:41:52;;;;;;;4.50;2.10;;;;;;;;;;2077954;28;20033;-78
2022/09/27 04:43:11;;;;;;;9.18;2.38;;;;;;;;;;2079331;28;20037;-77
2022/09/27 04:44:30;;;;;;;4.32;1.70;;;;;;;;;;2078758;28;20025;-78
2022/09/27 04:45:49;;;;;;;6.07;1.77;;;;;;;;;;2075468;28;20037;-78
2022/09/27 04:47:07;;;;;;;4.47;1.98;;;;;;;;;;2074227;28;20410;-77
2022/09/27 04:48:26;;;;;;;3.88;1.60;;;;;;;;;;2076512;28;20025;-77
2022/09/27 04:49:45;;;;;;;4.28;1.80;;;;;;;;;;2083782;28;20018;-77
2022/09/27 04:51:04;;;;;;;4.57;2.17;;;;;;;;;;2086905;28;20025;-77
2022/09/27 04:52:23;;;;;;;3.88;2.47;;;;;;;;;;2086206;28;20105;-77
2022/09/27 04:53:42;;;;;;;5.80;2.08;;;;;;;;;;2078046;28;20033;-77
2022/09/27 04:55:01;;;;;;;5.55;2.25;;;;;;;;;;2084439;28;20486;-77
2022/09/27 04:56:20;;;;;;;3.92;1.73;;;;;;;;;;2078852;28;20029;-77
2022/09/27 04:57:39;;;;;;;2.90;1.90;;;;;;;;;;2074782;28;20030;-78
2022/09/27 04:58:59;;;;;;;2.25;1.75;;;;;;;;;;2070059;28;20033;-78
2022/09/27 05:00:18;;;;;;;7.20;2.05;;;;;;;;;;2075926;28;20021;-77
2022/09/27 05:01:37;;;;;;;4.78;1.80;;;;;;;;;;2074679;28;20037;-77
2022/09/27 05:02:56;;;;;;;11.68;2.17;;;;;;;;;;2083080;28;20497;-78
2022/09/27 05:04:15;;;;;;;5.55;2.22;;;;;;;;;;2086393;28;20028;-76
2022/09/27 05:05:34;;;;;;;1.88;1.77;;;;;;;;;;2078701;28;20057;-79
2022/09/27 05:06:54;;;;;;;5.03;2.42;;;;;;;;;;2075586;28;20026;-79
2022/09/27 05:08:13;;;;;;;3.28;2.03;;;;;;;;;;2083237;28;20108;-79
2022/09/27 05:09:32;;;;;;;3.47;2.45;;;;;;;;;;2087628;28;20029;-79
2022/09/27 05:10:51;;;;;;;3.97;2.17;;;;;;;;;;2087525;28;20021;-79
2022/09/27 05:12:10;;;;;;;4.28;2.13;;;;;;;;;;2087512;28;20025;-79
2022/09/27 05:13:29;;;;;;;7.57;3.10;;;;;;;;;;2076381;28;20049;-78
2022/09/27 05:14:47;;;;;;;7.78;2.35;;;;;;;;;;2076336;28;20450;-82
2022/09/27 05:16:06;;;;;;;9.23;2.38;;;;;;;;;;2073462;28;20414;-82
2022/09/27 05:17:26;;;;;;;3.60;2.08;;;;;;;;;;2080238;28;20033;-79
2022/09/27 05:18:44;;;;;;;5.22;2.33;;;;;;;;;;2085310;28;20041;-78
2022/09/27 05:20:04;;;;;;;4.25;2.10;;;;;;;;;;2087270;28;20032;-78
2022/09/27 05:21:23;;;;;;;8.00;2.05;;;;;;;;;;2083196;28;20489;-78
2022/09/27 05:22:42;;;;;;;6.22;2.00;;;;;;;;;;2084836;28;20033;-78
2022/09/27 05:24:01;;;;;;;1.95;1.75;;;;;;;;;;2086910;28;20486;-78
2022/09/27 05:25:20;;;;;;;9.45;2.17;;;;;;;;;;2086201;28;20029;-77
2022/09/27 05:26:39;;;;;;;3.75;2.25;;;;;;;;;;2087500;28;20033;-77
2022/09/27 05:27:58;;;;;;;5.00;2.30;;;;;;;;;;2078990;28;20100;-78
2022/09/27 05:29:17;;;;;;;3.53;2.20;;;;;;;;;;2084314;28;20496;-78
2022/09/27 05:30:36;;;;;;;7.35;2.45;;;;;;;;;;2084739;28;20129;-79
2022/09/27 05:31:55;;;;;;;6.47;2.28;;;;;;;;;;2086490;28;20021;-78
2022/09/27 05:33:14;;;;;;;5.60;2.20;;;;;;;;;;2082233;28;20036;-78
2022/09/27 05:34:33;;;;;;;3.15;2.28;;;;;;;;;;2077676;28;20041;-78
2022/09/27 05:35:55;;;;;;;5.07;2.13;;;;;;;;;;2070313;28;20034;-78
2022/09/27 05:37:14;;;;;;;6.13;2.03;;;;;;;;;;2073838;28;20033;-78
2022/09/27 05:38:34;;;;;;;2.95;1.90;;;;;;;;;;2080229;28;20033;-77
2022/09/27 05:39:53;;;;;;;3.92;2.25;;;;;;;;;;2085554;28;20033;-78
2022/09/27 05:41:12;;;;;;;8.10;2.63;;;;;;;;;;2086070;28;20383;-78
2022/09/27 05:42:31;;;;;;;4.45;2.67;;;;;;;;;;2087493;28;20041;-78
2022/09/27 05:43:51;;;;;;;4.25;2.33;;;;;;;;;;2072587;28;20042;-79
2022/09/27 05:45:09;;;;;;;3.58;1.98;;;;;;;;;;2069763;28;20018;-78
2022/09/27 05:46:28;;;;;;;7.18;4.68;;;;;;;;;;2073523;28;20033;-78
2022/09/27 05:47:55;;;;;;;7.53;6.07;;;;;;;;;;2080507;28;20486;-79
2022/09/27 05:49:13;;;;;;;5.00;3.60;;;;;;;;;;2074322;28;20029;-80
2022/09/27 05:50:32;;;;;;;5.65;2.60;;;;;;;;;;2083194;28;20017;-80
2022/09/27 05:51:51;;;;;;;8.98;5.72;;;;;;;;;;2078646;28;20486;-81
2022/09/27 05:53:12;;;;;;;5.28;2.40;;;;;;;;;;2079318;28;20101;-79
2022/09/27 05:54:31;;;;;;;3.20;2.55;;;;;;;;;;2086211;28;20041;-80
2022/09/27 05:55:50;;;;;;;4.85;2.22;;;;;;;;;;2086267;28;20456;-79
2022/09/27 05:57:09;;;;;;;4.75;2.42;;;;;;;;;;2080454;28;20148;-80
2022/09/27 05:58:28;;;;;;;2.05;1.70;;;;;;;;;;2086676;28;20545;-79
2022/09/27 05:59:47;;;;;;;4.35;1.92;;;;;;;;;;2087200;28;20065;-79
2022/09/27 06:01:07;;;;;;;2.40;2.00;;;;;;;;;;2086561;28;20021;-79
2022/09/27 06:02:25;;;;;;;8.20;1.85;;;;;;;;;;2084664;28;20112;-78
2022/09/27 06:03:46;;;;;;;5.25;1.48;;;;;;;;;;2084355;28;20104;-79
2022/09/27 06:05:06;;;;;;;9.65;1.80;;;;;;;;;;2079191;28;20424;-79
2022/09/27 06:06:25;;;;;;;3.55;1.65;;;;;;;;;;2079682;28;20041;-78
2022/09/27 06:07:45;;;;;;;5.97;1.65;;;;;;;;;;2083652;28;20033;-80
2022/09/27 06:09:04;;;;;;;6.28;1.67;;;;;;;;;;2077407;28;20156;-78
2022/09/27 06:10:23;;;;;;;3.75;1.95;;;;;;;;;;2083098;28;20033;-79
2022/09/27 06:11:44;;;;;;;6.07;1.80;;;;;;;;;;2079781;28;20605;-78
2022/09/27 06:13:04;;;;;;;4.60;1.90;;;;;;;;;;2074453;28;20021;-78
2022/09/27 06:14:23;;;;;;;2.17;1.60;;;;;;;;;;2082379;28;20394;-78
2022/09/27 06:15:42;;;;;;;5.45;2.13;;;;;;;;;;2076666;28;20458;-77
2022/09/27 06:17:01;;;;;;;9.38;1.98;;;;;;;;;;2074819;28;20021;-78
2022/09/27 06:18:21;;;;;;;8.18;1.98;;;;;;;;;;2082261;28;20018;-78
2022/09/27 06:19:40;;;;;;;5.22;1.70;;;;;;;;;;2079172;28;20458;-78
2022/09/27 06:20:59;;;;;;;4.55;1.95;;;;;;;;;;2075634;28;20518;-77
2022/09/27 06:22:18;;;;;;;6.32;1.83;;;;;;;;;;2082890;28;20050;-79
2022/09/27 06:23:37;;;;;;;6.93;1.95;;;;;;;;;;2086535;28;20502;-77
2022/09/27 06:24:56;;;;;;;4.88;1.55;;;;;;;;;;2078280;28;20033;-78
2022/09/27 06:26:15;;;;;;;3.30;1.50;;;;;;;;;;2084366;28;20037;-78
2022/09/27 06:27:34;;;;;;;6.18;1.80;;;;;;;;;;2087382;28;20115;-78
2022/09/27 06:28:53;;;;;;;6.35;1.90;;;;;;;;;;2077808;28;20037;-77
2022/09/27 06:30:12;;;;;;;2.92;2.00;;;;;;;;;;2082236;28;20028;-77
2022/09/27 06:31:31;;;;;;;5.22;1.70;;;;;;;;;;2085291;28;20377;-78
2022/09/27 06:33:00;;;;;;;6.15;1.85;;;;;;;;;;2084206;28;20025;-78
2022/09/27 06:34:20;;;;;;;1.85;1.65;;;;;;;;;;2085631;28;20037;-78
2022/09/27 06:35:39;;;;;;;3.10;1.88;;;;;;;;;;2078601;28;20041;-78
2022/09/27 06:36:58;;;;;;;6.30;1.90;;;;;;;;;;2083138;28;20107;-78
2022/09/27 06:38:17;;;;;;;7.70;1.80;;;;;;;;;;2088177;28;20029;-78
2022/09/27 06:39:36;;;;;;;5.13;2.00;;;;;;;;;;2086562;28;20040;-78
2022/09/27 06:40:56;;;;;;;4.47;1.73;;;;;;;;;;2085662;28;20033;-77
2022/09/27 06:42:16;;;;;;;4.18;1.90;;;;;;;;;;2087750;28;20111;-77
2022/09/27 06:43:35;;;;;;;5.80;1.75;;;;;;;;;;2079737;28;20037;-78
2022/09/27 06:44:55;;;;;;;5.60;1.80;;;;;;;;;;2083339;28;20513;-78
2022/09/27 06:46:14;;;;;;;6.88;1.60;;;;;;;;;;2088455;28;20033;-78
2022/09/27 06:47:36;;;;;;;4.78;1.63;;;;;;;;;;2087351;28;20056;-78
2022/09/27 06:48:55;;;;;;;5.32;2.00;;;;;;;;;;2078730;28;20026;-78
2022/09/27 06:50:16;;;;;;;7.95;2.22;;;;;;;;;;2085017;28;20025;-78
2022/09/27 06:51:35;;;;;;;2.10;1.88;;;;;;;;;;2087584;28;20057;-78
2022/09/27 06:52:54;;;;;;;3.25;1.52;;;;;;;;;;2089588;28;20025;-78
2022/09/27 06:54:13;;;;;;;3.58;1.83;;;;;;;;;;2079646;28;20446;-78
2022/09/27 06:55:32;;;;;;;2.60;1.80;;;;;;;;;;2084991;28;20115;-78
2022/09/27 06:56:51;;;;;;;4.53;2.13;;;;;;;;;;2086556;28;20037;-78
2022/09/27 07:01:30;;;;;;;11.45;2.17;;;;;;;;;;2089608;28;20021;-78
2022/09/27 07:02:52;;;;;;;7.13;1.77;;;;;;;;;;2090669;28;20053;-79
2022/09/27 07:04:11;;;;;;;3.10;1.85;;;;;;;;;;2083188;28;20029;-78
2022/09/27 07:05:30;;;;;;;6.68;1.83;;;;;;;;;;2085413;28;20029;-79
2022/09/27 07:06:49;;;;;;;2.88;1.40;;;;;;;;;;2086760;28;20572;-80
2022/09/27 07:08:10;;;;;;;7.20;2.42;;;;;;;;;;2086429;28;20070;-78
2022/09/27 07:09:29;;;;;;;4.50;1.48;;;;;;;;;;2078949;28;20422;-79
2022/09/27 07:10:49;;;;;;;4.53;1.63;;;;;;;;;;2086763;28;20041;-80
2022/09/27 07:12:09;;;;;;;4.15;1.70;;;;;;;;;;2087232;28;20069;-80
2022/09/27 07:13:30;;;;;;;3.60;1.63;;;;;;;;;;2085322;28;20060;-78
2022/09/27 07:14:49;;;;;;;6.80;1.40;;;;;;;;;;2079187;28;20037;-80
2022/09/27 07:16:10;;;;;;;3.45;1.60;;;;;;;;;;2086259;28;20045;-79
2022/09/27 07:17:29;;;;;;;3.88;1.63;;;;;;;;;;2088931;28;20493;-79
2022/09/27 07:18:49;;;;;;;5.45;1.40;;;;;;;;;;2083862;28;20029;-80
2022/09/27 07:20:08;;;;;;;2.97;1.40;;;;;;;;;;2080180;28;20037;-78
2022/09/27 07:21:26;;;;;;;4.15;1.50;;;;;;;;;;2084502;28;20045;-80
2022/09/27 07:22:45;;;;;;;3.53;1.45;;;;;;;;;;2078958;28;20033;-79
2022/09/27 07:24:05;;;;;;;6.40;1.40;;;;;;;;;;2085765;28;20032;-80
2022/09/27 07:25:24;;;;;;;5.72;1.20;;;;;;;;;;2078945;28;20049;-78
2022/09/27 07:26:43;;;;;;;4.25;1.15;;;;;;;;;;2083613;28;20025;-79
2022/09/27 07:28:06;;;;;;;4.43;1.20;;;;;;;;;;2080810;28;20529;-79
2022/09/27 07:29:25;;;;;;;8.43;1.63;;;;;;;;;;2078076;28;20037;-79
2022/09/27 07:30:44;;;;;;;4.13;1.50;;;;;;;;;;2075249;28;20033;-79
2022/09/27 07:32:03;;;;;;;3.63;1.25;;;;;;;;;;2083438;28;20549;-79
2022/09/27 07:33:22;;;;;;;5.63;1.55;;;;;;;;;;2087099;28;20024;-79
2022/09/27 07:34:40;;;;;;;4.47;1.38;;;;;;;;;;2076539;28;20567;-78
2022/09/27 07:35:59;;;;;;;1.70;0.88;;;;;;;;;;2074482;28;20502;-78
2022/09/27 07:37:19;;;;;;;2.17;1.10;;;;;;;;;;2086109;28;20071;-80
2022/09/27 07:38:38;;;;;;;5.45;1.60;;;;;;;;;;2088210;28;20029;-79
2022/09/27 07:39:57;;;;;;;3.45;1.00;;;;;;;;;;2080553;28;20033;-79
2022/09/27 07:41:16;;;;;;;2.92;1.05;;;;;;;;;;2085818;28;20493;-79
2022/09/27 07:42:37;;;;;;;1.92;0.98;;;;;;;;;;2087520;28;20029;-79
2022/09/27 07:43:56;;;;;;;2.78;0.77;;;;;;;;;;2089684;28;20032;-79
2022/09/27 07:45:16;;;;;;;5.05;1.17;;;;;;;;;;2078905;28;20065;-79
2022/09/27 07:46:35;;;;;;;5.05;1.30;;;;;;;;;;2076181;28;20029;-79
2022/09/27 07:47:54;;;;;;;2.88;1.13;;;;;;;;;;2086064;28;20037;-79
2022/09/27 07:49:13;;;;;;;6.28;1.42;;;;;;;;;;2089401;28;20382;-77
2022/09/27 07:50:33;;;;;;;4.05;1.25;;;;;;;;;;2086847;28;20037;-78
2022/09/27 07:51:52;;;;;;;1.45;0.90;;;;;;;;;;2087627;28;20029;-78
2022/09/27 07:53:12;;;;;;;2.58;1.15;;;;;;;;;;2077068;28;20034;-79
2022/09/27 07:54:31;;;;;;;6.60;1.35;;;;;;;;;;2085156;28;20029;-78
2022/09/27 07:55:52;;;;;;;3.55;1.20;;;;;;;;;;2078291;28;20148;-77
2022/09/27 07:57:11;;;;;;;4.20;1.02;;;;;;;;;;2084048;28;20112;-78
2022/09/27 07:58:31;;;;;;;5.10;1.02;;;;;;;;;;2079227;28;20034;-80
2022/09/27 07:59:50;;;;;;;3.55;1.10;;;;;;;;;;2085396;28;20036;-78
2022/09/27 08:01:09;;;;;;;2.28;0.90;;;;;;;;;;2077695;28;20038;-81
2022/09/27 08:02:27;;;;;;;1.30;1.02;;;;;;;;;;2083377;28;20029;-77
2022/09/27 08:03:46;;;;;;;4.18;1.08;;;;;;;;;;2086467;28;20490;-80
2022/09/27 08:05:05;;;;;;;2.60;0.90;;;;;;;;;;2088830;28;20498;-79
2022/09/27 08:06:24;;;;;;;1.17;0.68;;;;;;;;;;2085309;28;20037;-78
2022/09/27 08:07:43;;;;;;;4.35;1.05;;;;;;;;;;2086733;28;20021;-80
2022/09/27 08:09:06;;;;;;;4.25;1.20;;;;;;;;;;2078100;28;20021;-79
2022/09/27 08:10:30;;;;;;;1.50;0.77;;;;;;;;;;2077393;28;20128;-80